sensor_id;sensor_type;location;lat;lon;timestamp;P1;durP1;ratioP1;P2;durP2;ratioP2
12774;SDS011;6451;42.630;23.382;2023-11-19T00:01:01;3.07;;;2.83;;
12774;SDS011;6451;42.630;23.382;2023-11-19T00:03:30;3.37;;;3.07;;
12774;SDS011;6451;42.630;23.382;2023-11-19T00:06:00;3.33;;;2.90;;
12774;SDS011;6451;42.630;23.382;2023-11-19T00:08:27;3.23;;;2.93;;
12774;SDS011;6451;42.630;23.382;2023-11-19T00:10:54;3.70;;;2.40;;
12774;SDS011;6451;42.630;23.382;2023-11-19T00:13:21;4.70;;;3.10;;
12774;SDS011;6451;42.630;23.382;2023-11-19T00:15:49;3.33;;;3.03;;
12774;SDS011;6451;42.630;23.382;2023-11-19T00:18:24;2.90;;;2.60;;
12774;SDS011;6451;42.630;23.382;2023-11-19T00:20:54;2.80;;;2.60;;
12774;SDS011;6451;42.630;23.382;2023-11-19T00:23:23;3.10;;;2.80;;
12774;SDS011;6451;42.630;23.382;2023-11-19T00:25:50;3.53;;;2.77;;
12774;SDS011;6451;42.630;23.382;2023-11-19T00:28:19;3.03;;;2.73;;
12774;SDS011;6451;42.630;23.382;2023-11-19T00:30:46;2.90;;;2.60;;
12774;SDS011;6451;42.630;23.382;2023-11-19T00:33:14;2.80;;;2.23;;
12774;SDS011;6451;42.630;23.382;2023-11-19T00:35:41;3.20;;;2.37;;
12774;SDS011;6451;42.630;23.382;2023-11-19T00:38:08;3.20;;;2.90;;
12774;SDS011;6451;42.630;23.382;2023-11-19T00:40:39;3.20;;;2.80;;
12774;SDS011;6451;42.630;23.382;2023-11-19T00:43:43;3.20;;;2.90;;
12774;SDS011;6451;42.630;23.382;2023-11-19T00:46:10;3.53;;;2.80;;
12774;SDS011;6451;42.630;23.382;2023-11-19T00:48:38;3.43;;;3.10;;
12774;SDS011;6451;42.630;23.382;2023-11-19T00:51:06;3.43;;;3.13;;
12774;SDS011;6451;42.630;23.382;2023-11-19T00:53:34;3.00;;;2.73;;
12774;SDS011;6451;42.630;23.382;2023-11-19T00:56:05;4.27;;;3.03;;
12774;SDS011;6451;42.630;23.382;2023-11-19T00:58:32;3.37;;;2.67;;
12774;SDS011;6451;42.630;23.382;2023-11-19T01:00:59;3.23;;;2.90;;
12774;SDS011;6451;42.630;23.382;2023-11-19T01:03:30;3.33;;;2.80;;
12774;SDS011;6451;42.630;23.382;2023-11-19T01:05:58;3.93;;;3.17;;
12774;SDS011;6451;42.630;23.382;2023-11-19T01:08:27;3.40;;;3.10;;
12774;SDS011;6451;42.630;23.382;2023-11-19T01:10:54;4.13;;;3.03;;
12774;SDS011;6451;42.630;23.382;2023-11-19T01:13:23;3.50;;;3.13;;
12774;SDS011;6451;42.630;23.382;2023-11-19T01:15:51;3.03;;;2.80;;
12774;SDS011;6451;42.630;23.382;2023-11-19T01:18:18;3.20;;;2.80;;
12774;SDS011;6451;42.630;23.382;2023-11-19T01:20:45;3.63;;;3.30;;
12774;SDS011;6451;42.630;23.382;2023-11-19T01:23:12;3.50;;;2.80;;
12774;SDS011;6451;42.630;23.382;2023-11-19T01:25:39;2.83;;;2.37;;
12774;SDS011;6451;42.630;23.382;2023-11-19T01:28:06;3.33;;;2.97;;
12774;SDS011;6451;42.630;23.382;2023-11-19T01:30:34;3.30;;;3.00;;
12774;SDS011;6451;42.630;23.382;2023-11-19T01:33:02;3.00;;;2.80;;
12774;SDS011;6451;42.630;23.382;2023-11-19T01:35:29;3.30;;;3.00;;
12774;SDS011;6451;42.630;23.382;2023-11-19T01:37:56;2.90;;;2.70;;
12774;SDS011;6451;42.630;23.382;2023-11-19T01:40:24;3.10;;;2.80;;
12774;SDS011;6451;42.630;23.382;2023-11-19T01:42:51;3.10;;;2.80;;
12774;SDS011;6451;42.630;23.382;2023-11-19T01:45:26;3.40;;;3.10;;
12774;SDS011;6451;42.630;23.382;2023-11-19T01:47:58;3.20;;;2.90;;
12774;SDS011;6451;42.630;23.382;2023-11-19T01:50:29;3.10;;;2.50;;
12774;SDS011;6451;42.630;23.382;2023-11-19T01:52:57;3.10;;;2.80;;
12774;SDS011;6451;42.630;23.382;2023-11-19T01:55:25;4.27;;;3.03;;
12774;SDS011;6451;42.630;23.382;2023-11-19T01:57:59;3.90;;;2.93;;
12774;SDS011;6451;42.630;23.382;2023-11-19T02:00:28;2.73;;;2.53;;
12774;SDS011;6451;42.630;23.382;2023-11-19T02:02:55;3.27;;;2.53;;
12774;SDS011;6451;42.630;23.382;2023-11-19T02:05:26;3.10;;;2.80;;
12774;SDS011;6451;42.630;23.382;2023-11-19T02:07:56;2.93;;;2.70;;
12774;SDS011;6451;42.630;23.382;2023-11-19T02:10:26;3.20;;;2.80;;
12774;SDS011;6451;42.630;23.382;2023-11-19T02:13:00;2.70;;;2.50;;
12774;SDS011;6451;42.630;23.382;2023-11-19T02:15:31;3.00;;;2.70;;
12774;SDS011;6451;42.630;23.382;2023-11-19T02:18:24;4.23;;;2.80;;
12774;SDS011;6451;42.630;23.382;2023-11-19T02:20:55;2.60;;;2.40;;
12774;SDS011;6451;42.630;23.382;2023-11-19T02:23:22;2.47;;;2.27;;
12774;SDS011;6451;42.630;23.382;2023-11-19T02:25:54;2.40;;;2.20;;
12774;SDS011;6451;42.630;23.382;2023-11-19T02:28:32;2.83;;;2.60;;
12774;SDS011;6451;42.630;23.382;2023-11-19T02:31:03;3.87;;;2.50;;
12774;SDS011;6451;42.630;23.382;2023-11-19T02:33:34;2.80;;;2.50;;
12774;SDS011;6451;42.630;23.382;2023-11-19T02:36:01;2.40;;;2.20;;
12774;SDS011;6451;42.630;23.382;2023-11-19T02:38:29;2.93;;;2.73;;
12774;SDS011;6451;42.630;23.382;2023-11-19T02:40:57;2.93;;;2.43;;
12774;SDS011;6451;42.630;23.382;2023-11-19T02:43:24;3.07;;;2.40;;
12774;SDS011;6451;42.630;23.382;2023-11-19T02:45:52;2.83;;;2.53;;
12774;SDS011;6451;42.630;23.382;2023-11-19T02:48:21;2.67;;;2.47;;
12774;SDS011;6451;42.630;23.382;2023-11-19T02:50:48;2.93;;;2.70;;
12774;SDS011;6451;42.630;23.382;2023-11-19T02:53:15;3.57;;;2.70;;
12774;SDS011;6451;42.630;23.382;2023-11-19T02:55:42;3.47;;;2.57;;
12774;SDS011;6451;42.630;23.382;2023-11-19T02:58:15;2.60;;;2.40;;
12774;SDS011;6451;42.630;23.382;2023-11-19T03:00:52;2.93;;;2.60;;
12774;SDS011;6451;42.630;23.382;2023-11-19T03:03:25;4.43;;;2.50;;
12774;SDS011;6451;42.630;23.382;2023-11-19T03:05:56;2.73;;;2.27;;
12774;SDS011;6451;42.630;23.382;2023-11-19T03:08:23;3.10;;;2.80;;
12774;SDS011;6451;42.630;23.382;2023-11-19T03:10:49;2.70;;;2.50;;
12774;SDS011;6451;42.630;23.382;2023-11-19T03:13:16;3.33;;;2.87;;
12774;SDS011;6451;42.630;23.382;2023-11-19T03:15:45;3.20;;;2.60;;
12774;SDS011;6451;42.630;23.382;2023-11-19T03:18:14;3.87;;;2.70;;
12774;SDS011;6451;42.630;23.382;2023-11-19T03:20:41;2.70;;;2.50;;
12774;SDS011;6451;42.630;23.382;2023-11-19T03:23:08;3.50;;;2.80;;
12774;SDS011;6451;42.630;23.382;2023-11-19T03:25:37;3.00;;;2.60;;
12774;SDS011;6451;42.630;23.382;2023-11-19T03:28:04;2.83;;;2.53;;
12774;SDS011;6451;42.630;23.382;2023-11-19T03:30:31;2.70;;;2.50;;
12774;SDS011;6451;42.630;23.382;2023-11-19T03:32:58;3.20;;;2.90;;
12774;SDS011;6451;42.630;23.382;2023-11-19T03:35:27;2.80;;;2.60;;
12774;SDS011;6451;42.630;23.382;2023-11-19T03:37:55;3.00;;;2.70;;
12774;SDS011;6451;42.630;23.382;2023-11-19T03:40:22;2.77;;;2.43;;
12774;SDS011;6451;42.630;23.382;2023-11-19T03:42:54;3.97;;;2.40;;
12774;SDS011;6451;42.630;23.382;2023-11-19T03:45:23;2.90;;;2.60;;
12774;SDS011;6451;42.630;23.382;2023-11-19T03:47:50;3.50;;;2.60;;
12774;SDS011;6451;42.630;23.382;2023-11-19T03:50:17;2.50;;;2.30;;
12774;SDS011;6451;42.630;23.382;2023-11-19T03:52:46;3.20;;;2.50;;
12774;SDS011;6451;42.630;23.382;2023-11-19T03:55:25;2.77;;;2.53;;
12774;SDS011;6451;42.630;23.382;2023-11-19T03:57:54;2.73;;;2.40;;
12774;SDS011;6451;42.630;23.382;2023-11-19T04:00:21;3.10;;;2.80;;
12774;SDS011;6451;42.630;23.382;2023-11-19T04:02:49;3.07;;;2.77;;
12774;SDS011;6451;42.630;23.382;2023-11-19T04:05:15;3.77;;;2.67;;
12774;SDS011;6451;42.630;23.382;2023-11-19T04:07:45;2.50;;;2.30;;
12774;SDS011;6451;42.630;23.382;2023-11-19T04:10:13;2.73;;;2.50;;
12774;SDS011;6451;42.630;23.382;2023-11-19T04:12:42;3.20;;;2.83;;
12774;SDS011;6451;42.630;23.382;2023-11-19T04:15:10;2.83;;;2.57;;
12774;SDS011;6451;42.630;23.382;2023-11-19T04:17:38;4.70;;;2.87;;
12774;SDS011;6451;42.630;23.382;2023-11-19T04:20:05;3.83;;;2.90;;
12774;SDS011;6451;42.630;23.382;2023-11-19T04:22:36;3.67;;;2.83;;
12774;SDS011;6451;42.630;23.382;2023-11-19T04:25:05;3.00;;;2.70;;
12774;SDS011;6451;42.630;23.382;2023-11-19T04:27:32;3.53;;;3.10;;
12774;SDS011;6451;42.630;23.382;2023-11-19T04:29:59;3.70;;;3.00;;
12774;SDS011;6451;42.630;23.382;2023-11-19T04:32:27;4.93;;;2.83;;
12774;SDS011;6451;42.630;23.382;2023-11-19T04:34:54;2.73;;;2.50;;
12774;SDS011;6451;42.630;23.382;2023-11-19T04:37:21;2.77;;;2.57;;
12774;SDS011;6451;42.630;23.382;2023-11-19T04:39:48;3.10;;;2.80;;
12774;SDS011;6451;42.630;23.382;2023-11-19T04:42:17;2.90;;;2.70;;
12774;SDS011;6451;42.630;23.382;2023-11-19T04:44:45;2.90;;;2.60;;
12774;SDS011;6451;42.630;23.382;2023-11-19T04:47:12;2.80;;;2.30;;
12774;SDS011;6451;42.630;23.382;2023-11-19T04:49:40;2.50;;;2.30;;
12774;SDS011;6451;42.630;23.382;2023-11-19T04:52:10;3.60;;;2.50;;
12774;SDS011;6451;42.630;23.382;2023-11-19T04:54:40;3.73;;;3.10;;
12774;SDS011;6451;42.630;23.382;2023-11-19T04:57:08;2.60;;;2.40;;
12774;SDS011;6451;42.630;23.382;2023-11-19T04:59:37;2.77;;;2.57;;
12774;SDS011;6451;42.630;23.382;2023-11-19T05:02:04;5.93;;;2.80;;
12774;SDS011;6451;42.630;23.382;2023-11-19T05:04:31;3.07;;;2.70;;
12774;SDS011;6451;42.630;23.382;2023-11-19T05:06:58;2.90;;;2.70;;
12774;SDS011;6451;42.630;23.382;2023-11-19T05:09:25;3.10;;;2.70;;
12774;SDS011;6451;42.630;23.382;2023-11-19T05:11:52;2.47;;;2.27;;
12774;SDS011;6451;42.630;23.382;2023-11-19T05:14:19;3.37;;;2.63;;
12774;SDS011;6451;42.630;23.382;2023-11-19T05:16:48;3.10;;;2.50;;
12774;SDS011;6451;42.630;23.382;2023-11-19T05:19:15;3.60;;;2.90;;
12774;SDS011;6451;42.630;23.382;2023-11-19T05:21:42;3.00;;;2.70;;
12774;SDS011;6451;42.630;23.382;2023-11-19T05:24:09;3.07;;;2.47;;
12774;SDS011;6451;42.630;23.382;2023-11-19T05:26:37;2.70;;;2.50;;
12774;SDS011;6451;42.630;23.382;2023-11-19T05:29:05;4.00;;;2.43;;
12774;SDS011;6451;42.630;23.382;2023-11-19T05:31:32;3.73;;;2.57;;
12774;SDS011;6451;42.630;23.382;2023-11-19T05:34:01;3.30;;;2.80;;
12774;SDS011;6451;42.630;23.382;2023-11-19T05:36:27;2.67;;;2.33;;
12774;SDS011;6451;42.630;23.382;2023-11-19T05:38:56;2.77;;;2.57;;
12774;SDS011;6451;42.630;23.382;2023-11-19T05:41:23;2.67;;;2.47;;
12774;SDS011;6451;42.630;23.382;2023-11-19T05:43:50;2.57;;;2.17;;
12774;SDS011;6451;42.630;23.382;2023-11-19T05:46:17;2.73;;;2.53;;
12774;SDS011;6451;42.630;23.382;2023-11-19T05:48:44;2.50;;;2.30;;
12774;SDS011;6451;42.630;23.382;2023-11-19T05:51:17;2.90;;;2.60;;
12774;SDS011;6451;42.630;23.382;2023-11-19T05:53:50;2.87;;;2.57;;
12774;SDS011;6451;42.630;23.382;2023-11-19T05:56:28;5.57;;;2.90;;
12774;SDS011;6451;42.630;23.382;2023-11-19T05:58:58;3.00;;;2.67;;
12774;SDS011;6451;42.630;23.382;2023-11-19T06:01:25;2.87;;;2.57;;
12774;SDS011;6451;42.630;23.382;2023-11-19T06:03:54;3.13;;;2.83;;
12774;SDS011;6451;42.630;23.382;2023-11-19T06:06:22;3.00;;;2.67;;
12774;SDS011;6451;42.630;23.382;2023-11-19T06:08:49;2.93;;;2.53;;
12774;SDS011;6451;42.630;23.382;2023-11-19T06:11:17;4.67;;;2.87;;
12774;SDS011;6451;42.630;23.382;2023-11-19T06:13:45;3.53;;;2.97;;
12774;SDS011;6451;42.630;23.382;2023-11-19T06:16:16;2.97;;;2.67;;
12774;SDS011;6451;42.630;23.382;2023-11-19T06:18:43;3.13;;;2.70;;
12774;SDS011;6451;42.630;23.382;2023-11-19T06:21:10;3.70;;;3.10;;
12774;SDS011;6451;42.630;23.382;2023-11-19T06:23:38;3.23;;;2.93;;
12774;SDS011;6451;42.630;23.382;2023-11-19T06:26:05;3.97;;;2.90;;
12774;SDS011;6451;42.630;23.382;2023-11-19T06:28:32;3.47;;;2.90;;
12774;SDS011;6451;42.630;23.382;2023-11-19T06:30:59;3.40;;;3.10;;
12774;SDS011;6451;42.630;23.382;2023-11-19T06:33:26;3.67;;;2.90;;
12774;SDS011;6451;42.630;23.382;2023-11-19T06:35:53;3.70;;;2.80;;
12774;SDS011;6451;42.630;23.382;2023-11-19T06:38:22;3.43;;;2.63;;
12774;SDS011;6451;42.630;23.382;2023-11-19T06:40:51;3.30;;;2.90;;
12774;SDS011;6451;42.630;23.382;2023-11-19T06:43:18;3.63;;;3.03;;
12774;SDS011;6451;42.630;23.382;2023-11-19T06:45:46;4.17;;;3.10;;
12774;SDS011;6451;42.630;23.382;2023-11-19T06:48:14;3.77;;;3.10;;
12774;SDS011;6451;42.630;23.382;2023-11-19T06:50:41;3.47;;;3.13;;
12774;SDS011;6451;42.630;23.382;2023-11-19T06:53:09;3.20;;;2.90;;
12774;SDS011;6451;42.630;23.382;2023-11-19T06:55:36;3.77;;;3.33;;
12774;SDS011;6451;42.630;23.382;2023-11-19T06:58:05;3.70;;;3.00;;
12774;SDS011;6451;42.630;23.382;2023-11-19T07:00:32;3.20;;;2.90;;
12774;SDS011;6451;42.630;23.382;2023-11-19T07:03:01;2.80;;;2.27;;
12774;SDS011;6451;42.630;23.382;2023-11-19T07:05:28;3.67;;;2.90;;
12774;SDS011;6451;42.630;23.382;2023-11-19T07:07:55;2.80;;;2.40;;
12774;SDS011;6451;42.630;23.382;2023-11-19T07:10:27;3.97;;;3.10;;
12774;SDS011;6451;42.630;23.382;2023-11-19T07:12:55;3.80;;;3.23;;
12774;SDS011;6451;42.630;23.382;2023-11-19T07:15:25;3.73;;;3.10;;
12774;SDS011;6451;42.630;23.382;2023-11-19T07:17:56;3.30;;;2.80;;
12774;SDS011;6451;42.630;23.382;2023-11-19T07:20:29;3.30;;;3.00;;
12774;SDS011;6451;42.630;23.382;2023-11-19T07:22:58;3.67;;;3.33;;
12774;SDS011;6451;42.630;23.382;2023-11-19T07:25:25;3.37;;;2.70;;
12774;SDS011;6451;42.630;23.382;2023-11-19T07:27:53;4.03;;;3.60;;
12774;SDS011;6451;42.630;23.382;2023-11-19T07:30:21;3.57;;;3.20;;
12774;SDS011;6451;42.630;23.382;2023-11-19T07:32:50;3.90;;;3.40;;
12774;SDS011;6451;42.630;23.382;2023-11-19T07:35:25;3.70;;;3.40;;
12774;SDS011;6451;42.630;23.382;2023-11-19T07:37:59;3.07;;;2.10;;
12774;SDS011;6451;42.630;23.382;2023-11-19T07:40:26;3.43;;;3.13;;
12774;SDS011;6451;42.630;23.382;2023-11-19T07:42:53;3.70;;;3.23;;
12774;SDS011;6451;42.630;23.382;2023-11-19T07:45:20;4.63;;;3.30;;
12774;SDS011;6451;42.630;23.382;2023-11-19T07:47:47;3.67;;;3.13;;
12774;SDS011;6451;42.630;23.382;2023-11-19T07:50:17;3.23;;;2.93;;
12774;SDS011;6451;42.630;23.382;2023-11-19T07:52:51;3.53;;;3.10;;
12774;SDS011;6451;42.630;23.382;2023-11-19T07:55:21;3.33;;;2.80;;
12774;SDS011;6451;42.630;23.382;2023-11-19T07:57:51;6.10;;;2.87;;
12774;SDS011;6451;42.630;23.382;2023-11-19T08:00:20;4.17;;;3.00;;
12774;SDS011;6451;42.630;23.382;2023-11-19T08:02:49;3.67;;;3.20;;
12774;SDS011;6451;42.630;23.382;2023-11-19T08:05:18;3.37;;;2.97;;
12774;SDS011;6451;42.630;23.382;2023-11-19T08:07:45;5.07;;;3.07;;
12774;SDS011;6451;42.630;23.382;2023-11-19T08:10:12;3.93;;;3.30;;
12774;SDS011;6451;42.630;23.382;2023-11-19T08:12:48;3.67;;;3.23;;
12774;SDS011;6451;42.630;23.382;2023-11-19T08:15:25;5.20;;;3.40;;
12774;SDS011;6451;42.630;23.382;2023-11-19T08:17:55;3.63;;;3.30;;
12774;SDS011;6451;42.630;23.382;2023-11-19T08:20:27;3.67;;;3.10;;
12774;SDS011;6451;42.630;23.382;2023-11-19T08:22:59;4.20;;;3.60;;
12774;SDS011;6451;42.630;23.382;2023-11-19T08:25:44;3.60;;;3.10;;
12774;SDS011;6451;42.630;23.382;2023-11-19T08:28:14;3.93;;;3.53;;
12774;SDS011;6451;42.630;23.382;2023-11-19T08:30:41;3.47;;;3.07;;
12774;SDS011;6451;42.630;23.382;2023-11-19T08:33:09;5.07;;;3.47;;
12774;SDS011;6451;42.630;23.382;2023-11-19T08:35:38;4.67;;;3.40;;
12774;SDS011;6451;42.630;23.382;2023-11-19T08:38:14;5.00;;;3.73;;
12774;SDS011;6451;42.630;23.382;2023-11-19T08:40:44;4.00;;;3.60;;
12774;SDS011;6451;42.630;23.382;2023-11-19T08:43:11;4.60;;;3.83;;
12774;SDS011;6451;42.630;23.382;2023-11-19T08:45:40;3.83;;;3.20;;
12774;SDS011;6451;42.630;23.382;2023-11-19T08:48:08;5.37;;;3.43;;
12774;SDS011;6451;42.630;23.382;2023-11-19T08:50:35;4.03;;;3.40;;
12774;SDS011;6451;42.630;23.382;2023-11-19T08:53:04;5.90;;;3.60;;
12774;SDS011;6451;42.630;23.382;2023-11-19T08:55:32;3.90;;;3.10;;
12774;SDS011;6451;42.630;23.382;2023-11-19T08:57:59;3.50;;;3.20;;
12774;SDS011;6451;42.630;23.382;2023-11-19T09:00:29;4.27;;;3.33;;
12774;SDS011;6451;42.630;23.382;2023-11-19T09:03:00;3.67;;;2.90;;
12774;SDS011;6451;42.630;23.382;2023-11-19T09:05:30;3.97;;;3.57;;
12774;SDS011;6451;42.630;23.382;2023-11-19T09:08:01;3.73;;;3.27;;
12774;SDS011;6451;42.630;23.382;2023-11-19T09:10:32;4.07;;;3.43;;
12774;SDS011;6451;42.630;23.382;2023-11-19T09:13:05;3.00;;;2.70;;
12774;SDS011;6451;42.630;23.382;2023-11-19T09:15:33;3.97;;;3.00;;
12774;SDS011;6451;42.630;23.382;2023-11-19T09:18:00;3.63;;;3.33;;
12774;SDS011;6451;42.630;23.382;2023-11-19T09:20:28;3.67;;;3.30;;
12774;SDS011;6451;42.630;23.382;2023-11-19T09:23:04;4.10;;;3.50;;
12774;SDS011;6451;42.630;23.382;2023-11-19T09:25:37;3.30;;;2.70;;
12774;SDS011;6451;42.630;23.382;2023-11-19T09:28:10;4.70;;;3.70;;
12774;SDS011;6451;42.630;23.382;2023-11-19T09:30:41;4.17;;;3.20;;
12774;SDS011;6451;42.630;23.382;2023-11-19T09:33:08;3.83;;;3.37;;
12774;SDS011;6451;42.630;23.382;2023-11-19T09:35:40;3.20;;;2.90;;
12774;SDS011;6451;42.630;23.382;2023-11-19T09:38:16;3.70;;;3.40;;
12774;SDS011;6451;42.630;23.382;2023-11-19T09:40:46;3.40;;;3.10;;
12774;SDS011;6451;42.630;23.382;2023-11-19T09:43:16;3.20;;;2.90;;
12774;SDS011;6451;42.630;23.382;2023-11-19T09:45:46;4.20;;;3.50;;
12774;SDS011;6451;42.630;23.382;2023-11-19T09:48:16;3.37;;;3.07;;
12774;SDS011;6451;42.630;23.382;2023-11-19T09:50:47;3.53;;;3.23;;
12774;SDS011;6451;42.630;23.382;2023-11-19T09:53:22;3.77;;;3.30;;
12774;SDS011;6451;42.630;23.382;2023-11-19T09:56:01;3.67;;;3.37;;
12774;SDS011;6451;42.630;23.382;2023-11-19T09:58:30;3.87;;;3.33;;
12774;SDS011;6451;42.630;23.382;2023-11-19T10:00:58;3.50;;;3.17;;
12774;SDS011;6451;42.630;23.382;2023-11-19T10:03:26;3.13;;;2.83;;
12774;SDS011;6451;42.630;23.382;2023-11-19T10:05:53;3.50;;;3.20;;
12774;SDS011;6451;42.630;23.382;2023-11-19T10:08:23;3.70;;;3.10;;
12774;SDS011;6451;42.630;23.382;2023-11-19T10:10:50;3.63;;;3.33;;
12774;SDS011;6451;42.630;23.382;2023-11-19T10:13:18;3.40;;;3.10;;
12774;SDS011;6451;42.630;23.382;2023-11-19T10:15:46;3.30;;;3.00;;
12774;SDS011;6451;42.630;23.382;2023-11-19T10:18:28;4.40;;;3.17;;
12774;SDS011;6451;42.630;23.382;2023-11-19T10:20:56;4.20;;;3.60;;
12774;SDS011;6451;42.630;23.382;2023-11-19T10:23:24;4.10;;;3.23;;
12774;SDS011;6451;42.630;23.382;2023-11-19T10:25:52;4.20;;;3.27;;
12774;SDS011;6451;42.630;23.382;2023-11-19T10:28:20;3.47;;;3.17;;
12774;SDS011;6451;42.630;23.382;2023-11-19T10:30:46;4.83;;;3.23;;
12774;SDS011;6451;42.630;23.382;2023-11-19T10:33:24;3.83;;;3.43;;
12774;SDS011;6451;42.630;23.382;2023-11-19T10:35:58;3.07;;;2.77;;
12774;SDS011;6451;42.630;23.382;2023-11-19T10:38:27;2.97;;;2.50;;
12774;SDS011;6451;42.630;23.382;2023-11-19T10:41:04;3.67;;;3.10;;
12774;SDS011;6451;42.630;23.382;2023-11-19T10:43:31;3.20;;;2.63;;
12774;SDS011;6451;42.630;23.382;2023-11-19T10:46:10;3.30;;;2.77;;
12774;SDS011;6451;42.630;23.382;2023-11-19T10:48:38;3.47;;;3.00;;
12774;SDS011;6451;42.630;23.382;2023-11-19T10:51:06;3.10;;;2.80;;
12774;SDS011;6451;42.630;23.382;2023-11-19T10:53:36;2.37;;;2.17;;
12774;SDS011;6451;42.630;23.382;2023-11-19T10:56:05;2.50;;;2.30;;
12774;SDS011;6451;42.630;23.382;2023-11-19T10:58:35;3.07;;;2.50;;
12774;SDS011;6451;42.630;23.382;2023-11-19T11:01:07;2.60;;;2.27;;
12774;SDS011;6451;42.630;23.382;2023-11-19T11:03:40;3.40;;;2.77;;
12774;SDS011;6451;42.630;23.382;2023-11-19T11:06:09;3.50;;;3.20;;
12774;SDS011;6451;42.630;23.382;2023-11-19T11:08:39;2.97;;;2.63;;
12774;SDS011;6451;42.630;23.382;2023-11-19T11:11:07;3.83;;;2.60;;
12774;SDS011;6451;42.630;23.382;2023-11-19T11:13:35;3.17;;;2.80;;
12774;SDS011;6451;42.630;23.382;2023-11-19T11:16:08;2.60;;;2.40;;
12774;SDS011;6451;42.630;23.382;2023-11-19T11:18:36;3.23;;;2.80;;
12774;SDS011;6451;42.630;23.382;2023-11-19T11:21:04;3.03;;;2.70;;
12774;SDS011;6451;42.630;23.382;2023-11-19T11:26:42;3.23;;;2.87;;
12774;SDS011;6451;42.630;23.382;2023-11-19T11:29:35;4.17;;;3.07;;
12774;SDS011;6451;42.630;23.382;2023-11-19T11:32:08;4.00;;;2.80;;
12774;SDS011;6451;42.630;23.382;2023-11-19T11:34:49;3.40;;;2.80;;
12774;SDS011;6451;42.630;23.382;2023-11-19T11:37:37;2.70;;;2.50;;
12774;SDS011;6451;42.630;23.382;2023-11-19T11:40:15;3.03;;;2.63;;
12774;SDS011;6451;42.630;23.382;2023-11-19T11:42:43;2.90;;;2.43;;
12774;SDS011;6451;42.630;23.382;2023-11-19T11:45:11;5.03;;;2.87;;
12774;SDS011;6451;42.630;23.382;2023-11-19T11:50:52;3.20;;;2.90;;
12774;SDS011;6451;42.630;23.382;2023-11-19T11:53:24;3.73;;;3.23;;
12774;SDS011;6451;42.630;23.382;2023-11-19T11:55:54;3.30;;;3.00;;
12774;SDS011;6451;42.630;23.382;2023-11-19T11:58:25;3.17;;;2.87;;
12774;SDS011;6451;42.630;23.382;2023-11-19T12:00:57;3.50;;;2.70;;
12774;SDS011;6451;42.630;23.382;2023-11-19T12:03:27;2.87;;;2.50;;
12774;SDS011;6451;42.630;23.382;2023-11-19T12:05:55;3.63;;;2.77;;
12774;SDS011;6451;42.630;23.382;2023-11-19T12:08:24;3.67;;;3.10;;
12774;SDS011;6451;42.630;23.382;2023-11-19T12:10:55;2.90;;;2.70;;
12774;SDS011;6451;42.630;23.382;2023-11-19T12:13:24;3.23;;;2.77;;
12774;SDS011;6451;42.630;23.382;2023-11-19T12:16:09;3.70;;;2.97;;
12774;SDS011;6451;42.630;23.382;2023-11-19T12:18:39;5.90;;;3.00;;
12774;SDS011;6451;42.630;23.382;2023-11-19T12:21:10;3.10;;;2.67;;
12774;SDS011;6451;42.630;23.382;2023-11-19T12:23:43;4.43;;;3.50;;
12774;SDS011;6451;42.630;23.382;2023-11-19T12:29:03;3.43;;;3.10;;
12774;SDS011;6451;42.630;23.382;2023-11-19T12:31:31;4.17;;;3.37;;
12774;SDS011;6451;42.630;23.382;2023-11-19T12:34:04;3.30;;;3.00;;
12774;SDS011;6451;42.630;23.382;2023-11-19T12:36:33;4.97;;;2.70;;
12774;SDS011;6451;42.630;23.382;2023-11-19T12:39:01;4.90;;;3.63;;
12774;SDS011;6451;42.630;23.382;2023-11-19T12:41:29;4.43;;;3.90;;
12774;SDS011;6451;42.630;23.382;2023-11-19T12:44:10;3.70;;;3.30;;
12774;SDS011;6451;42.630;23.382;2023-11-19T12:46:37;3.73;;;3.37;;
12774;SDS011;6451;42.630;23.382;2023-11-19T12:49:05;4.03;;;3.10;;
12774;SDS011;6451;42.630;23.382;2023-11-19T12:51:32;4.50;;;3.50;;
12774;SDS011;6451;42.630;23.382;2023-11-19T12:53:59;3.33;;;2.93;;
12774;SDS011;6451;42.630;23.382;2023-11-19T12:56:27;4.60;;;4.03;;
12774;SDS011;6451;42.630;23.382;2023-11-19T12:58:55;3.67;;;3.33;;
12774;SDS011;6451;42.630;23.382;2023-11-19T13:01:26;4.37;;;3.23;;
12774;SDS011;6451;42.630;23.382;2023-11-19T13:03:53;4.40;;;3.37;;
12774;SDS011;6451;42.630;23.382;2023-11-19T13:06:20;4.53;;;3.30;;
12774;SDS011;6451;42.630;23.382;2023-11-19T13:08:48;4.93;;;3.73;;
12774;SDS011;6451;42.630;23.382;2023-11-19T13:11:30;3.77;;;3.37;;
12774;SDS011;6451;42.630;23.382;2023-11-19T13:13:58;5.03;;;3.37;;
12774;SDS011;6451;42.630;23.382;2023-11-19T13:16:27;4.97;;;3.90;;
12774;SDS011;6451;42.630;23.382;2023-11-19T13:18:55;3.63;;;3.20;;
12774;SDS011;6451;42.630;23.382;2023-11-19T13:21:22;4.10;;;3.70;;
12774;SDS011;6451;42.630;23.382;2023-11-19T13:23:49;5.57;;;3.40;;
12774;SDS011;6451;42.630;23.382;2023-11-19T13:26:16;3.60;;;3.30;;
12774;SDS011;6451;42.630;23.382;2023-11-19T13:28:43;4.17;;;3.43;;
12774;SDS011;6451;42.630;23.382;2023-11-19T13:31:14;3.67;;;3.30;;
12774;SDS011;6451;42.630;23.382;2023-11-19T13:33:42;3.67;;;3.37;;
12774;SDS011;6451;42.630;23.382;2023-11-19T13:36:11;4.43;;;3.53;;
12774;SDS011;6451;42.630;23.382;2023-11-19T13:38:38;6.50;;;3.60;;
12774;SDS011;6451;42.630;23.382;2023-11-19T13:41:08;4.53;;;3.80;;
12774;SDS011;6451;42.630;23.382;2023-11-19T13:43:36;5.23;;;3.73;;
12774;SDS011;6451;42.630;23.382;2023-11-19T13:46:06;3.50;;;3.20;;
12774;SDS011;6451;42.630;23.382;2023-11-19T13:48:35;5.83;;;3.33;;
12774;SDS011;6451;42.630;23.382;2023-11-19T13:51:04;3.80;;;3.40;;
12774;SDS011;6451;42.630;23.382;2023-11-19T13:53:31;3.63;;;3.00;;
12774;SDS011;6451;42.630;23.382;2023-11-19T13:55:58;5.00;;;3.70;;
12774;SDS011;6451;42.630;23.382;2023-11-19T13:58:26;4.33;;;3.43;;
12774;SDS011;6451;42.630;23.382;2023-11-19T14:00:53;4.47;;;3.40;;
12774;SDS011;6451;42.630;23.382;2023-11-19T14:03:20;3.30;;;3.00;;
12774;SDS011;6451;42.630;23.382;2023-11-19T14:05:47;4.60;;;3.40;;
12774;SDS011;6451;42.630;23.382;2023-11-19T14:08:19;4.33;;;3.80;;
12774;SDS011;6451;42.630;23.382;2023-11-19T14:10:46;4.63;;;3.20;;
12774;SDS011;6451;42.630;23.382;2023-11-19T14:13:13;4.10;;;3.37;;
12774;SDS011;6451;42.630;23.382;2023-11-19T14:15:40;3.40;;;3.07;;
12774;SDS011;6451;42.630;23.382;2023-11-19T14:18:08;3.70;;;3.30;;
12774;SDS011;6451;42.630;23.382;2023-11-19T14:20:39;3.80;;;3.30;;
12774;SDS011;6451;42.630;23.382;2023-11-19T14:23:10;4.50;;;3.30;;
12774;SDS011;6451;42.630;23.382;2023-11-19T14:25:39;5.87;;;4.30;;
12774;SDS011;6451;42.630;23.382;2023-11-19T14:28:06;7.17;;;5.00;;
12774;SDS011;6451;42.630;23.382;2023-11-19T14:30:35;4.00;;;3.13;;
12774;SDS011;6451;42.630;23.382;2023-11-19T14:33:07;4.10;;;3.47;;
12774;SDS011;6451;42.630;23.382;2023-11-19T14:35:34;7.07;;;5.10;;
12774;SDS011;6451;42.630;23.382;2023-11-19T14:38:03;6.80;;;4.63;;
12774;SDS011;6451;42.630;23.382;2023-11-19T14:40:32;5.60;;;4.50;;
12774;SDS011;6451;42.630;23.382;2023-11-19T14:43:00;4.17;;;3.77;;
12774;SDS011;6451;42.630;23.382;2023-11-19T14:45:27;4.93;;;4.27;;
12774;SDS011;6451;42.630;23.382;2023-11-19T14:47:55;4.73;;;4.13;;
12774;SDS011;6451;42.630;23.382;2023-11-19T14:50:22;4.47;;;4.07;;
12774;SDS011;6451;42.630;23.382;2023-11-19T14:52:49;5.20;;;4.40;;
12774;SDS011;6451;42.630;23.382;2023-11-19T14:55:16;5.07;;;3.93;;
12774;SDS011;6451;42.630;23.382;2023-11-19T14:57:43;4.30;;;3.90;;
12774;SDS011;6451;42.630;23.382;2023-11-19T15:00:13;5.83;;;4.53;;
12774;SDS011;6451;42.630;23.382;2023-11-19T15:02:41;4.80;;;4.30;;
12774;SDS011;6451;42.630;23.382;2023-11-19T15:05:08;4.20;;;3.80;;
12774;SDS011;6451;42.630;23.382;2023-11-19T15:07:36;5.23;;;4.50;;
12774;SDS011;6451;42.630;23.382;2023-11-19T15:10:03;5.80;;;3.97;;